createdAt,value
2017-01-04T00:00:29.141Z,3.64
2017-01-04T00:01:29.161Z,3.67
2017-01-04T00:02:29.068Z,3.62
2017-01-04T00:03:29.183Z,3.64
2017-01-04T00:04:29.317Z,3.64
2017-01-04T00:05:29.143Z,3.68
2017-01-04T00:06:29.194Z,3.7
2017-01-04T00:07:29.116Z,3.64
2017-01-04T00:08:29.111Z,3.63
2017-01-04T00:09:29.240Z,3.7
2017-01-04T00:10:29.300Z,3.64
2017-01-04T00:11:29.101Z,3.63
2017-01-04T00:12:29.301Z,3.64
2017-01-04T00:13:29.143Z,3.52
2017-01-04T00:14:29.254Z,3.64
2017-01-04T00:15:29.188Z,3.64
2017-01-04T00:16:29.140Z,3.68
2017-01-04T00:17:29.142Z,3.56
2017-01-04T00:18:29.103Z,3.67
2017-01-04T00:19:29.158Z,3.68
2017-01-04T00:20:29.189Z,3.7
2017-01-04T00:21:29.135Z,3.63
2017-01-04T00:22:29.230Z,3.64
2017-01-04T00:23:29.111Z,3.63
2017-01-04T00:24:29.163Z,3.57
2017-01-04T00:25:29.199Z,3.62
2017-01-04T00:26:29.131Z,3.63
2017-01-04T00:27:29.118Z,3.71
2017-01-04T00:28:29.158Z,3.59
2017-01-04T00:29:29.146Z,3.63
2017-01-04T00:30:29.318Z,3.56
2017-01-04T00:31:29.259Z,3.67
2017-01-04T00:32:29.233Z,3.54
2017-01-04T00:33:29.121Z,3.59
2017-01-04T00:34:29.146Z,3.6
2017-01-04T00:35:29.168Z,3.56
2017-01-04T00:36:29.191Z,3.54
2017-01-04T00:37:29.118Z,3.59
2017-01-04T00:38:29.129Z,3.59
2017-01-04T00:39:29.127Z,3.7
2017-01-04T00:40:29.278Z,3.6
2017-01-04T00:41:29.147Z,3.7
2017-01-04T00:42:29.201Z,3.67
2017-01-04T00:43:29.117Z,3.68
2017-01-04T00:44:29.197Z,3.56
2017-01-04T00:45:29.161Z,3.57
2017-01-04T00:46:29.261Z,3.59
2017-01-04T00:47:29.177Z,3.53
2017-01-04T00:48:29.117Z,3.64
2017-01-04T00:49:29.125Z,3.54
2017-01-04T00:50:29.148Z,3.52
2017-01-04T00:51:29.117Z,3.56
2017-01-04T00:52:29.348Z,3.71
2017-01-04T00:53:29.175Z,3.57
2017-01-04T00:54:29.417Z,3.57
2017-01-04T00:55:29.199Z,3.56
2017-01-04T00:56:29.143Z,3.53
2017-01-04T00:57:29.178Z,3.64
2017-01-04T00:58:29.141Z,3.56
2017-01-04T00:59:29.156Z,3.68
2017-01-04T01:00:29.157Z,3.63
2017-01-04T01:01:29.198Z,3.63
2017-01-04T01:02:29.202Z,3.6
2017-01-04T01:03:29.206Z,3.5
2017-01-04T01:04:39.137Z,3.56
2017-01-04T01:05:29.208Z,3.56
2017-01-04T01:06:29.237Z,3.53
2017-01-04T01:07:29.172Z,3.57
2017-01-04T01:08:29.173Z,3.53
2017-01-04T01:09:29.210Z,3.53
2017-01-04T01:10:29.206Z,3.53
2017-01-04T01:11:29.259Z,3.59
2017-01-04T01:12:29.180Z,3.57
2017-01-04T01:13:29.192Z,3.57
2017-01-04T01:14:29.171Z,3.71
2017-01-04T01:15:29.267Z,3.6
2017-01-04T01:16:29.215Z,3.63
2017-01-04T01:17:29.283Z,3.64
2017-01-04T01:18:29.692Z,3.64
2017-01-04T01:19:29.220Z,3.56
2017-01-04T01:20:29.264Z,3.57
2017-01-04T01:21:29.231Z,3.6
2017-01-04T01:22:29.198Z,3.64
2017-01-04T01:23:29.207Z,3.59
2017-01-04T01:24:29.257Z,3.53
2017-01-04T01:25:29.220Z,3.64
2017-01-04T01:26:29.174Z,3.62
2017-01-04T01:27:29.192Z,3.72
2017-01-04T01:28:29.203Z,3.67
2017-01-04T01:29:29.155Z,3.71
2017-01-04T01:30:29.352Z,3.72
2017-01-04T01:31:29.285Z,3.7
2017-01-04T01:32:29.196Z,3.64
2017-01-04T01:33:29.264Z,3.71
2017-01-04T01:34:29.256Z,3.72
2017-01-04T01:35:29.225Z,3.7
2017-01-04T01:36:29.227Z,3.59
2017-01-04T01:37:29.216Z,3.78
2017-01-04T01:38:29.223Z,3.72
2017-01-04T01:39:29.235Z,3.74
2017-01-04T01:40:29.215Z,3.74
2017-01-04T01:41:29.191Z,3.77
2017-01-04T01:42:29.272Z,3.68
2017-01-04T01:43:29.225Z,3.77
2017-01-04T01:44:29.274Z,3.75
2017-01-04T01:45:29.214Z,3.74
2017-01-04T01:46:29.228Z,3.7
2017-01-04T01:47:29.252Z,3.75
2017-01-04T01:48:29.294Z,3.75
2017-01-04T01:49:29.274Z,3.81
2017-01-04T01:50:29.234Z,3.72
2017-01-04T01:51:29.258Z,3.75
2017-01-04T01:52:29.241Z,3.77
2017-01-04T01:53:29.219Z,3.71
2017-01-04T01:54:29.255Z,3.75
2017-01-04T01:55:29.244Z,3.81
2017-01-04T01:56:29.185Z,3.77
2017-01-04T01:57:29.276Z,3.81
2017-01-04T01:58:29.302Z,3.81
2017-01-04T01:59:29.224Z,3.81
2017-01-04T02:00:32.175Z,3.84
2017-01-04T02:01:29.213Z,3.82
2017-01-04T02:02:29.211Z,3.8
2017-01-04T02:03:29.265Z,3.84
2017-01-04T02:04:29.253Z,3.8
2017-01-04T02:05:29.334Z,3.77
2017-01-04T02:06:29.299Z,3.82
2017-01-04T02:11:00.991Z,3.92
2017-01-04T02:12:00.743Z,3.98
2017-01-04T02:12:58.352Z,3.92
2017-01-04T02:14:01.183Z,3.89
2017-01-04T02:15:00.650Z,3.92
2017-01-04T02:15:58.414Z,4
2017-01-04T02:16:59.395Z,3.93
2017-01-04T02:17:59.929Z,3.95
2017-01-04T02:18:58.313Z,3.98
2017-01-04T02:19:58.453Z,3.95
2017-01-04T02:20:58.310Z,3.99
2017-01-04T02:21:58.467Z,3.98
2017-01-04T02:22:58.246Z,3.95
2017-01-04T02:23:58.314Z,4.02
2017-01-04T02:24:58.323Z,4.07
2017-01-04T02:25:58.322Z,4.04
2017-01-04T02:26:58.296Z,4.04
2017-01-04T02:27:58.420Z,4.06
2017-01-04T02:28:58.295Z,4.04
2017-01-04T02:29:58.323Z,4.07
2017-01-04T02:30:58.379Z,4.06
2017-01-04T02:31:58.273Z,4.04
2017-01-04T02:32:58.272Z,4.02
2017-01-04T02:33:58.336Z,4
2017-01-04T02:34:58.313Z,4.02
2017-01-04T02:35:58.364Z,4.08
2017-01-04T02:36:58.348Z,4.14
2017-01-04T02:37:58.446Z,4.17
2017-01-04T02:38:58.374Z,4.07
2017-01-04T02:39:58.428Z,4.16
2017-01-04T02:40:58.332Z,4.13
2017-01-04T02:41:58.362Z,4.16
2017-01-04T02:42:58.404Z,4.2
2017-01-04T02:43:58.491Z,4.17
2017-01-04T02:44:58.311Z,4.17
2017-01-04T02:45:58.507Z,4.17
2017-01-04T02:46:58.410Z,4.2
2017-01-04T02:47:58.451Z,4.11
2017-01-04T02:48:58.309Z,4.14
2017-01-04T02:49:58.431Z,4.16
2017-01-04T02:50:58.389Z,4.18
2017-01-04T02:51:58.400Z,4.21
2017-01-04T02:52:58.317Z,4.16
2017-01-04T02:53:58.333Z,4.18
2017-01-04T02:54:58.326Z,4.17
2017-01-04T02:55:58.381Z,4.25
2017-01-04T02:56:58.380Z,4.29
2017-01-04T02:57:58.350Z,4.25
2017-01-04T02:58:58.389Z,4.29
2017-01-04T02:59:58.310Z,4.25
2017-01-04T03:00:58.365Z,4.28
2017-01-04T03:01:58.520Z,4.18
2017-01-04T03:02:58.323Z,4.24
2017-01-04T03:03:58.392Z,4.28
2017-01-04T03:04:58.388Z,4.24
2017-01-04T03:05:58.384Z,4.25
2017-01-04T03:06:58.322Z,4.26
2017-01-04T03:07:58.524Z,4.26
2017-01-04T03:08:58.352Z,4.25
2017-01-04T03:09:58.501Z,4.28
2017-01-04T03:10:58.499Z,4.25
2017-01-04T03:11:58.376Z,4.38
2017-01-04T03:12:58.298Z,4.35
2017-01-04T03:13:58.468Z,4.35
2017-01-04T03:14:58.340Z,4.36
2017-01-04T03:15:58.329Z,4.32
2017-01-04T03:16:58.412Z,4.38
2017-01-04T03:17:58.376Z,4.35
2017-01-04T03:18:58.363Z,4.26
2017-01-04T03:19:58.488Z,4.36
2017-01-04T03:20:58.387Z,4.36
2017-01-04T03:21:58.412Z,4.35
2017-01-04T03:22:58.538Z,4.38
2017-01-04T03:23:58.425Z,4.35
2017-01-04T03:24:58.378Z,4.32
2017-01-04T03:25:58.499Z,4.35
2017-01-04T03:26:58.356Z,4.39
2017-01-04T03:27:58.457Z,4.36
2017-01-04T03:28:58.390Z,4.36
2017-01-04T03:29:58.468Z,4.42
2017-01-04T03:30:58.424Z,4.32
2017-01-04T03:31:58.540Z,4.29
2017-01-04T03:32:58.374Z,4.32
2017-01-04T03:33:58.459Z,4.34
2017-01-04T03:34:58.410Z,4.32
2017-01-04T03:35:58.509Z,4.39
2017-01-04T03:36:58.386Z,4.32
2017-01-04T03:37:58.508Z,4.42
2017-01-04T03:38:58.397Z,4.31
2017-01-04T03:39:58.494Z,4.29
2017-01-04T03:40:58.419Z,4.35
2017-01-04T03:41:58.538Z,4.36
2017-01-04T03:42:58.425Z,4.38
2017-01-04T03:44:08.430Z,4.39
2017-01-04T03:44:58.368Z,4.39
2017-01-04T03:45:58.497Z,4.38
2017-01-04T03:46:58.408Z,4.34
2017-01-04T03:47:58.446Z,4.35
2017-01-04T03:51:05.788Z,4.36
2017-01-04T03:51:17.558Z,4.38
2017-01-04T03:52:17.306Z,4.39
2017-01-04T03:53:17.415Z,4.38
2017-01-04T03:54:17.396Z,4.44
2017-01-04T03:55:17.471Z,4.43
2017-01-04T03:56:17.437Z,4.43
2017-01-04T03:57:17.464Z,4.47
2017-01-04T03:58:17.340Z,4.36
2017-01-04T03:59:17.484Z,4.36
2017-01-04T04:00:17.357Z,4.43
2017-01-04T04:01:20.847Z,4.46
2017-01-04T04:02:17.384Z,4.42
2017-01-04T04:03:17.537Z,4.47
2017-01-04T04:04:17.379Z,4.5
2017-01-04T04:05:17.406Z,4.34
2017-01-04T04:06:17.357Z,4.5
2017-01-04T04:07:18.346Z,4.43
2017-01-04T04:08:17.427Z,4.44
2017-01-04T04:09:17.365Z,4.47
2017-01-04T04:10:17.492Z,4.47
2017-01-04T04:11:17.527Z,4.44
2017-01-04T04:12:17.526Z,4.5
2017-01-04T04:13:17.416Z,4.51
2017-01-04T04:14:17.365Z,4.46
2017-01-04T04:15:17.510Z,4.51
2017-01-04T04:16:17.538Z,4.46
2017-01-04T04:17:17.506Z,4.47
2017-01-04T04:18:17.392Z,4.46
2017-01-04T04:19:17.445Z,4.42
2017-01-04T04:20:17.386Z,4.47
2017-01-04T04:21:17.501Z,4.47
2017-01-04T04:22:17.454Z,4.44
2017-01-04T04:23:17.534Z,4.44
2017-01-04T04:24:17.377Z,4.44
2017-01-04T04:25:17.362Z,4.43
2017-01-04T04:26:17.495Z,4.59
2017-01-04T04:27:18.474Z,4.47
2017-01-04T04:28:17.376Z,4.57
2017-01-04T04:29:17.452Z,4.43
2017-01-04T04:30:20.344Z,4.47
2017-01-04T04:31:17.489Z,4.54
2017-01-04T04:32:17.417Z,4.56
2017-01-04T04:33:17.480Z,4.43
2017-01-04T04:34:17.545Z,4.49
2017-01-04T04:35:17.468Z,4.42
2017-01-04T04:36:17.445Z,4.5
2017-01-04T04:37:17.435Z,4.47
2017-01-04T04:38:17.555Z,4.5
2017-01-04T04:39:17.455Z,4.61
2017-01-04T04:40:17.544Z,4.47
2017-01-04T04:41:17.649Z,4.49
2017-01-04T04:42:17.523Z,4.47
2017-01-04T04:43:17.434Z,4.49
2017-01-04T04:44:17.535Z,4.47
2017-01-04T04:45:17.449Z,4.44
2017-01-04T04:46:17.464Z,4.49
2017-01-04T04:47:17.433Z,4.53
2017-01-04T04:48:18.032Z,4.53
2017-01-04T04:49:17.525Z,4.47
2017-01-04T04:50:17.564Z,4.46
2017-01-04T04:51:17.504Z,4.57
2017-01-04T04:52:17.516Z,4.5
2017-01-04T04:53:18.062Z,4.44
2017-01-04T04:54:17.434Z,4.51
2017-01-04T04:55:17.653Z,4.61
2017-01-04T04:56:17.504Z,4.46
2017-01-04T04:57:17.523Z,4.53
2017-01-04T04:58:17.589Z,4.5
2017-01-04T04:59:17.494Z,4.61
2017-01-04T05:00:17.579Z,4.51
2017-01-04T05:01:17.512Z,4.5
2017-01-04T05:02:17.479Z,4.47
2017-01-04T05:03:17.614Z,4.5
2017-01-04T05:04:17.592Z,4.51
2017-01-04T05:05:17.554Z,4.47
2017-01-04T05:06:18.182Z,4.47
2017-01-04T05:07:17.495Z,4.47
2017-01-04T05:08:17.455Z,4.44
2017-01-04T05:09:17.552Z,4.57
2017-01-04T05:10:18.253Z,4.49
2017-01-04T05:11:17.612Z,4.62
2017-01-04T05:12:17.503Z,4.44
2017-01-04T05:13:17.493Z,4.51
2017-01-04T05:17:47.241Z,4.5
2017-01-04T05:18:47.351Z,4.54
2017-01-04T05:19:47.243Z,4.56
2017-01-04T05:20:47.180Z,4.61
2017-01-04T05:21:47.219Z,4.54
2017-01-04T05:22:47.256Z,4.59
2017-01-04T05:23:47.141Z,4.59
2017-01-04T05:24:47.407Z,4.53
2017-01-04T05:25:47.262Z,4.62
2017-01-04T05:26:47.219Z,4.61
2017-01-04T05:27:47.252Z,4.62
2017-01-04T05:28:47.231Z,4.67
2017-01-04T05:33:17.120Z,4.65
2017-01-04T05:34:17.241Z,4.64
2017-01-04T05:35:17.190Z,4.68
2017-01-04T05:36:17.152Z,4.69
2017-01-04T05:37:17.101Z,4.67
2017-01-04T05:38:17.290Z,4.65
2017-01-04T05:39:17.153Z,4.64
2017-01-04T05:40:17.099Z,4.69
2017-01-04T05:41:17.392Z,4.75
2017-01-04T05:42:17.239Z,4.77
2017-01-04T05:43:17.239Z,4.64
2017-01-04T05:44:17.336Z,4.71
2017-01-04T05:45:17.138Z,4.74
2017-01-04T05:46:17.348Z,4.67
2017-01-04T05:47:17.760Z,4.68
2017-01-04T05:48:17.178Z,4.69
2017-01-04T05:49:17.426Z,4.68
2017-01-04T05:50:17.398Z,4.72
2017-01-04T05:51:17.174Z,4.75
2017-01-04T05:52:17.176Z,4.74
2017-01-04T05:53:17.197Z,4.65
2017-01-04T05:54:17.202Z,4.74
2017-01-04T05:55:17.159Z,4.75
2017-01-04T05:56:17.196Z,4.86
2017-01-04T05:57:18.032Z,4.8
2017-01-04T05:58:17.266Z,4.8
2017-01-04T05:59:17.336Z,4.75
2017-01-04T06:00:17.246Z,4.8
2017-01-04T06:01:17.229Z,4.79
2017-01-04T06:02:17.370Z,4.79
2017-01-04T06:03:17.336Z,4.77
2017-01-04T06:04:17.172Z,4.75
2017-01-04T06:05:17.245Z,4.75
2017-01-04T06:06:17.296Z,4.79
2017-01-04T06:07:17.195Z,4.77
2017-01-04T06:08:17.235Z,4.86
2017-01-04T06:09:17.174Z,4.9
2017-01-04T06:10:17.344Z,4.93
2017-01-04T06:11:17.203Z,4.87
2017-01-04T06:12:17.324Z,4.99
2017-01-04T06:13:17.192Z,4.94
2017-01-04T06:14:17.197Z,4.94
2017-01-04T06:15:17.254Z,4.97
2017-01-04T06:16:17.172Z,4.99
2017-01-04T06:17:17.158Z,4.99
2017-01-04T06:18:17.312Z,5.04
2017-01-04T06:19:17.160Z,5.02
2017-01-04T06:20:17.213Z,4.97
2017-01-04T06:21:27.281Z,5.01
2017-01-04T06:22:18.877Z,5.04
2017-01-04T06:23:17.316Z,5.05
2017-01-04T06:24:17.262Z,5.06
2017-01-04T06:25:17.194Z,5.08
2017-01-04T06:26:17.363Z,5.12
2017-01-04T06:27:17.168Z,5.14
2017-01-04T06:28:17.240Z,5.11
2017-01-04T06:29:17.231Z,5.08
2017-01-04T06:30:17.309Z,5.11
2017-01-04T06:31:17.414Z,5.14
2017-01-04T06:32:17.237Z,5.11
2017-01-04T06:33:17.243Z,5.15
2017-01-04T06:34:17.284Z,5.19
2017-01-04T06:35:17.299Z,5.2
2017-01-04T06:36:17.325Z,5.15
2017-01-04T06:37:17.228Z,5.17
2017-01-04T06:38:17.330Z,5.2
2017-01-04T06:39:17.197Z,5.2
2017-01-04T06:40:17.320Z,5.2
2017-01-04T06:41:17.175Z,5.27
2017-01-04T06:42:17.281Z,5.27
2017-01-04T06:43:17.384Z,5.29
2017-01-04T06:44:17.225Z,5.38
2017-01-04T06:45:17.244Z,5.19
2017-01-04T06:46:17.256Z,5.37
2017-01-04T06:47:17.297Z,5.32
2017-01-04T06:48:17.250Z,5.35
2017-01-04T06:49:17.195Z,5.38
2017-01-04T06:50:17.257Z,5.37
2017-01-04T06:51:17.344Z,5.29
2017-01-04T06:52:17.277Z,5.32
2017-01-04T06:53:17.235Z,5.42
2017-01-04T06:54:17.286Z,5.42
2017-01-04T06:55:17.221Z,5.41
2017-01-04T06:56:17.235Z,5.26
2017-01-04T06:57:17.197Z,5.4
2017-01-04T06:58:17.934Z,5.37
2017-01-04T06:59:17.196Z,5.4
2017-01-04T07:00:17.381Z,5.29
2017-01-04T07:01:17.283Z,5.35
2017-01-04T07:02:17.436Z,5.45
2017-01-04T07:03:17.392Z,5.4
2017-01-04T07:04:17.253Z,5.41
2017-01-04T07:05:17.213Z,5.38
2017-01-04T07:06:17.333Z,5.41
2017-01-04T07:07:17.361Z,5.38
2017-01-04T07:08:17.319Z,5.42
2017-01-04T07:09:17.234Z,5.47
2017-01-04T07:10:17.273Z,5.4
2017-01-04T07:11:17.262Z,5.37
2017-01-04T07:12:17.271Z,5.45
2017-01-04T07:13:17.418Z,5.47
2017-01-04T07:14:17.333Z,5.48
2017-01-04T07:15:17.253Z,5.47
2017-01-04T07:16:17.352Z,5.47
2017-01-04T07:17:17.282Z,5.52
2017-01-04T07:18:17.320Z,5.48
2017-01-04T07:19:17.281Z,5.47
2017-01-04T07:20:17.431Z,5.55
2017-01-04T07:21:17.219Z,5.49
2017-01-04T07:22:17.288Z,5.55
2017-01-04T07:23:17.393Z,5.59
2017-01-04T07:24:17.312Z,5.56
2017-01-04T07:25:17.340Z,5.59
2017-01-04T07:26:17.309Z,5.63
2017-01-04T07:27:17.238Z,5.58
2017-01-04T07:28:17.414Z,5.55
2017-01-04T07:29:17.258Z,5.55
2017-01-04T07:30:17.528Z,5.62
2017-01-04T07:31:17.277Z,5.59
2017-01-04T07:32:17.286Z,5.48
2017-01-04T07:33:17.387Z,5.51
2017-01-04T07:34:20.120Z,5.56
2017-01-04T07:35:17.291Z,5.49
2017-01-04T07:36:17.390Z,5.62
2017-01-04T07:37:17.445Z,5.49
2017-01-04T07:38:17.278Z,5.49
2017-01-04T07:39:17.284Z,5.62
2017-01-04T07:40:17.310Z,5.59
2017-01-04T07:41:17.289Z,5.58
2017-01-04T07:42:17.358Z,5.7
2017-01-04T07:43:17.302Z,5.65
2017-01-04T07:44:19.375Z,5.65
2017-01-04T07:45:17.371Z,5.7
2017-01-04T07:46:17.432Z,5.67
2017-01-04T07:47:17.323Z,5.66
2017-01-04T07:48:17.428Z,5.67
2017-01-04T07:49:17.438Z,5.65
2017-01-04T07:50:17.410Z,5.66
2017-01-04T07:51:17.388Z,5.69
2017-01-04T07:52:17.290Z,5.65
2017-01-04T07:53:17.329Z,5.73
2017-01-04T07:54:18.350Z,5.67
2017-01-04T07:55:17.328Z,5.75
2017-01-04T07:56:17.559Z,5.69
2017-01-04T07:57:17.389Z,5.7
2017-01-04T07:58:17.877Z,5.73
2017-01-04T07:59:17.304Z,5.69
2017-01-04T08:00:17.450Z,5.7
2017-01-04T08:01:17.558Z,5.83
2017-01-04T08:02:17.414Z,5.78
2017-01-04T08:03:17.406Z,5.81
2017-01-04T08:04:17.490Z,5.78
2017-01-04T08:05:17.448Z,5.78
2017-01-04T08:06:17.536Z,5.75
2017-01-04T08:07:17.412Z,5.78
2017-01-04T08:08:17.399Z,5.8
2017-01-04T08:09:17.366Z,5.83
2017-01-04T08:10:17.433Z,5.8
2017-01-04T08:11:17.445Z,5.77
2017-01-04T08:12:17.665Z,5.74
2017-01-04T08:13:17.444Z,5.74
2017-01-04T08:14:17.392Z,5.75
2017-01-04T08:15:17.323Z,5.85
2017-01-04T08:16:17.388Z,5.75
2017-01-04T08:17:17.320Z,5.75
2017-01-04T08:18:17.449Z,5.87
2017-01-04T08:19:17.333Z,5.84
2017-01-04T08:20:17.954Z,5.83
2017-01-04T08:21:17.403Z,5.83
2017-01-04T08:22:17.432Z,5.85
2017-01-04T08:23:17.351Z,5.92
2017-01-04T08:24:17.331Z,5.9
2017-01-04T08:25:17.362Z,5.88
2017-01-04T08:26:17.491Z,5.83
2017-01-04T08:27:17.352Z,5.84
2017-01-04T08:28:17.512Z,5.83
2017-01-04T08:29:17.481Z,5.81
2017-01-04T08:30:17.381Z,5.92
2017-01-04T08:31:17.344Z,5.85
2017-01-04T08:32:17.386Z,5.88
2017-01-04T08:33:17.419Z,5.9
2017-01-04T08:34:17.393Z,5.84
2017-01-04T08:35:17.470Z,5.96
2017-01-04T08:36:17.391Z,6.05
2017-01-04T08:37:17.494Z,5.98
2017-01-04T08:38:17.538Z,6.01
2017-01-04T08:39:17.382Z,6.01
2017-01-04T08:40:17.388Z,5.99
2017-01-04T08:41:17.483Z,6.08
2017-01-04T08:42:17.421Z,6.06
2017-01-04T08:43:17.545Z,6.11
2017-01-04T08:44:18.124Z,6.16
2017-01-04T08:45:17.666Z,6.17
2017-01-04T08:46:17.413Z,6.11
2017-01-04T08:47:17.360Z,6.14
2017-01-04T08:48:17.655Z,6.06
2017-01-04T08:49:17.416Z,6.1
2017-01-04T08:50:17.420Z,6.24
2017-01-04T08:51:17.518Z,6.16
2017-01-04T08:52:17.560Z,6.17
2017-01-04T08:53:17.476Z,6.16
2017-01-04T08:54:17.407Z,6.24
2017-01-04T08:55:17.565Z,6.24
2017-01-04T08:56:17.390Z,6.16
2017-01-04T08:57:17.701Z,6.17
2017-01-04T08:58:17.516Z,6.21
2017-01-04T08:59:17.523Z,6.19
2017-01-04T09:00:17.409Z,6.21
2017-01-04T09:01:17.352Z,6.19
2017-01-04T09:02:17.391Z,6.21
2017-01-04T09:03:17.482Z,6.2
2017-01-04T09:04:17.521Z,6.19
2017-01-04T09:05:17.418Z,6.16
2017-01-04T09:06:17.479Z,6.19
2017-01-04T09:07:17.552Z,6.3
2017-01-04T09:08:18.361Z,6.3
2017-01-04T09:09:17.506Z,6.33
2017-01-04T09:10:17.572Z,6.27
2017-01-04T09:11:17.521Z,6.33
2017-01-04T09:12:17.552Z,6.45
2017-01-04T09:13:17.411Z,6.48
2017-01-04T09:14:17.465Z,6.43
2017-01-04T09:15:17.405Z,6.55
2017-01-04T09:16:17.491Z,6.48
2017-01-04T09:17:17.405Z,6.48
2017-01-04T09:18:17.543Z,6.57
2017-01-04T09:19:17.560Z,6.51
2017-01-04T09:20:17.543Z,6.55
2017-01-04T09:21:17.604Z,6.6
2017-01-04T09:22:17.470Z,6.63
2017-01-04T09:23:17.511Z,6.93
2017-01-04T09:24:17.566Z,7.04
2017-01-04T09:25:17.555Z,7.15
2017-01-04T09:26:17.452Z,6.97
2017-01-04T09:27:17.593Z,6.9
2017-01-04T09:28:17.554Z,6.76
2017-01-04T09:29:17.412Z,6.73
2017-01-04T09:30:17.538Z,6.69
2017-01-04T09:31:17.486Z,6.73
2017-01-04T09:32:17.551Z,6.82
2017-01-04T09:33:17.635Z,6.81
2017-01-04T09:34:17.533Z,6.81
2017-01-04T09:35:17.586Z,6.9
2017-01-04T09:36:17.516Z,7.07
2017-01-04T09:37:17.596Z,7.01
2017-01-04T09:38:17.542Z,7.09
2017-01-04T09:39:17.446Z,6.96
2017-01-04T09:40:17.491Z,6.97
2017-01-04T09:41:17.479Z,7.19
2017-01-04T09:42:17.432Z,7.16
2017-01-04T09:43:17.635Z,7.3
2017-01-04T09:44:17.531Z,7.44
2017-01-04T09:45:17.541Z,7.37
2017-01-04T09:46:17.570Z,7.36
2017-01-04T09:47:17.531Z,7.26
2017-01-04T09:48:17.572Z,7.23
2017-01-04T09:49:17.561Z,7.18
2017-01-04T09:50:17.613Z,7.29
2017-01-04T09:51:17.460Z,7.18
2017-01-04T09:52:17.599Z,7.29
2017-01-04T09:53:18.391Z,7.3
2017-01-04T09:54:17.602Z,7.32
2017-01-04T09:55:17.881Z,7.07
2017-01-04T09:56:17.746Z,7.14
2017-01-04T09:57:17.792Z,7.04
2017-01-04T09:58:17.963Z,6.93
2017-01-04T09:59:17.959Z,7.01
2017-01-04T10:00:17.899Z,7.04
2017-01-04T10:01:17.715Z,7.15
2017-01-04T10:02:17.963Z,7.26
2017-01-04T10:03:17.572Z,7.33
2017-01-04T10:04:17.610Z,7.55
2017-01-04T10:05:17.450Z,7.6
2017-01-04T10:06:17.599Z,7.6
2017-01-04T10:07:17.507Z,7.89
2017-01-04T10:08:17.601Z,8.12
2017-01-04T10:09:17.621Z,8.06
2017-01-04T10:10:17.500Z,8.04
2017-01-04T10:11:17.512Z,7.67
2017-01-04T10:12:17.620Z,7.71
2017-01-04T10:13:17.648Z,7.54
2017-01-04T10:14:17.549Z,7.39
2017-01-04T10:15:17.528Z,7.27
2017-01-04T10:16:17.629Z,7.48
2017-01-04T10:17:17.513Z,7.54
2017-01-04T10:18:17.568Z,7.48
2017-01-04T10:23:35.462Z,7.41
2017-01-04T10:23:47.283Z,6.99
2017-01-04T10:24:47.160Z,7.07
2017-01-04T10:25:47.198Z,7.12
2017-01-04T10:26:47.127Z,7.08
2017-01-04T10:27:47.182Z,7.27
2017-01-04T10:28:47.288Z,7.37
2017-01-04T10:29:47.191Z,7.63
2017-01-04T10:30:47.124Z,7.7
2017-01-04T10:31:47.209Z,7.55
2017-01-04T10:32:47.118Z,7.32
2017-01-04T10:33:47.135Z,7.24
2017-01-04T10:34:47.158Z,7
2017-01-04T10:35:47.240Z,7.12
2017-01-04T10:36:47.149Z,7.29
2017-01-04T10:37:47.178Z,7.5
2017-01-04T10:38:47.149Z,7.62
2017-01-04T10:39:47.351Z,7.42
2017-01-04T10:40:47.106Z,7.36
2017-01-04T10:41:47.199Z,7.42
2017-01-04T10:42:47.095Z,7.23
2017-01-04T10:43:47.226Z,7.33
2017-01-04T10:44:47.177Z,7.34
2017-01-04T10:45:47.226Z,7.23
2017-01-04T10:46:47.131Z,7.18
2017-01-04T10:47:47.238Z,7.04
2017-01-04T10:48:47.288Z,7.11
2017-01-04T10:49:47.318Z,6.93
2017-01-04T10:50:47.175Z,6.91
2017-01-04T10:51:47.162Z,7.12
2017-01-04T10:52:47.188Z,7.14
2017-01-04T10:53:47.252Z,7.32
2017-01-04T10:54:47.131Z,7.19
2017-01-04T10:55:47.220Z,7.19
2017-01-04T10:56:47.337Z,7.21
2017-01-04T10:57:47.265Z,7.16
2017-01-04T10:58:47.270Z,6.91
2017-01-04T10:59:47.178Z,6.91
2017-01-04T11:00:47.242Z,7.04
2017-01-04T11:01:47.356Z,7.19
2017-01-04T11:02:47.185Z,7.39
2017-01-04T11:03:47.410Z,7.6
2017-01-04T11:04:47.143Z,7.52
2017-01-04T11:05:47.251Z,7.71
2017-01-04T11:06:47.185Z,8.03
2017-01-04T11:07:47.311Z,8.42
2017-01-04T11:08:47.156Z,8.4
2017-01-04T11:09:47.355Z,8.03
2017-01-04T11:10:47.155Z,7.67
2017-01-04T11:11:47.193Z,7.57
2017-01-04T11:12:47.464Z,7.55
2017-01-04T11:13:47.374Z,7.33
2017-01-04T11:14:47.343Z,7.29
2017-01-04T11:15:47.253Z,7.45
2017-01-04T11:16:47.177Z,7.57
2017-01-04T11:17:47.256Z,7.18
2017-01-04T11:18:47.197Z,7.16
2017-01-04T11:19:47.361Z,7.18
2017-01-04T11:20:47.176Z,7.04
2017-01-04T11:21:47.281Z,7.12
2017-01-04T11:22:47.164Z,7.05
2017-01-04T11:23:47.293Z,7.07
2017-01-04T11:24:47.273Z,7.12
2017-01-04T11:25:47.354Z,7.15
2017-01-04T11:26:47.365Z,6.93
2017-01-04T11:27:47.357Z,6.86
2017-01-04T11:28:47.303Z,6.99
2017-01-04T11:29:47.234Z,7.04
2017-01-04T11:30:47.426Z,7.36
2017-01-04T11:31:47.295Z,7.36
2017-01-04T11:32:47.317Z,7.29
2017-01-04T11:33:47.332Z,7.39
2017-01-04T11:34:47.233Z,7.58
2017-01-04T11:35:47.366Z,7.54
2017-01-04T11:36:47.321Z,7.69
2017-01-04T11:37:47.263Z,7.95
2017-01-04T11:38:47.293Z,7.96
2017-01-04T11:39:47.309Z,7.96
2017-01-04T11:40:47.247Z,8.18
2017-01-04T11:41:47.275Z,8.21
2017-01-04T11:42:47.294Z,8.27
2017-01-04T11:43:47.362Z,8.46
2017-01-04T11:44:47.247Z,8.57
2017-01-04T11:45:47.523Z,8.7
2017-01-04T11:46:47.368Z,9.06
2017-01-04T11:47:47.353Z,9.23
2017-01-04T11:48:47.352Z,9.16
2017-01-04T11:49:47.336Z,9.27
2017-01-04T11:50:47.361Z,9.41
2017-01-04T11:51:47.300Z,9.83
2017-01-04T11:52:47.237Z,9.65
2017-01-04T11:53:47.432Z,9.68
2017-01-04T11:54:47.241Z,9.81
2017-01-04T11:55:47.361Z,10.16
2017-01-04T11:56:47.362Z,10.13
2017-01-04T11:57:47.446Z,9.89
2017-01-04T11:58:47.314Z,9.89
2017-01-04T11:59:47.287Z,10.04
2017-01-04T12:00:47.293Z,9.95
2017-01-04T12:01:47.286Z,9.81
2017-01-04T12:02:47.199Z,9.92
2017-01-04T12:03:47.379Z,10.11
2017-01-04T12:04:47.338Z,10.2
2017-01-04T12:05:47.391Z,10.54
2017-01-04T12:06:47.269Z,11.03
2017-01-04T12:07:47.264Z,11.24
2017-01-04T12:08:47.380Z,11.48
2017-01-04T12:09:47.314Z,10.69
2017-01-04T12:10:47.280Z,10.35
2017-01-04T12:11:47.400Z,10.31
2017-01-04T12:12:47.250Z,10.04
2017-01-04T12:13:47.479Z,9.67
2017-01-04T12:14:47.295Z,9.59
2017-01-04T12:15:47.469Z,9.8
2017-01-04T12:16:47.361Z,9.73
2017-01-04T12:17:47.276Z,9.4
2017-01-04T12:18:47.262Z,9.06
2017-01-04T12:19:47.374Z,8.79
2017-01-04T12:20:47.311Z,8.57
2017-01-04T12:21:47.375Z,8.39
2017-01-04T12:22:47.300Z,8.22
2017-01-04T12:23:47.391Z,8.13
2017-01-04T12:24:47.454Z,8.02
2017-01-04T12:25:47.418Z,7.89
2017-01-04T12:26:47.231Z,7.84
2017-01-04T12:27:47.410Z,7.82
2017-01-04T12:28:47.312Z,7.42
2017-01-04T12:29:47.904Z,7.3
2017-01-04T12:30:47.282Z,7.19
2017-01-04T12:31:47.291Z,7.24
2017-01-04T12:32:47.409Z,7.07
2017-01-04T12:33:47.320Z,6.91
2017-01-04T12:34:47.351Z,6.76
2017-01-04T12:35:47.358Z,6.73
2017-01-04T12:36:47.304Z,6.71
2017-01-04T12:37:47.346Z,6.68
2017-01-04T12:38:47.424Z,6.6
2017-01-04T12:39:47.367Z,6.93
2017-01-04T12:40:47.284Z,7.08
2017-01-04T12:41:47.274Z,7.33
2017-01-04T12:42:47.233Z,7.54
2017-01-04T12:43:47.354Z,7.62
2017-01-04T12:44:47.436Z,7.42
2017-01-04T12:45:47.364Z,7.21
2017-01-04T12:46:47.273Z,7.33
2017-01-04T12:47:47.258Z,7.51
2017-01-04T12:48:47.413Z,7.57
2017-01-04T12:49:47.344Z,7.54
2017-01-04T12:50:47.308Z,7.74
2017-01-04T12:51:47.339Z,7.74
2017-01-04T12:52:48.200Z,7.82
2017-01-04T12:53:47.344Z,7.91
2017-01-04T12:59:04.587Z,7.88
2017-01-04T12:59:16.436Z,7.86
2017-01-04T13:00:16.291Z,7.82
2017-01-04T13:01:16.304Z,7.89
2017-01-04T13:02:16.314Z,7.67
2017-01-04T13:03:16.974Z,7.81
2017-01-04T13:04:16.385Z,7.84
2017-01-04T13:05:16.298Z,7.85
2017-01-04T13:06:16.331Z,7.74
2017-01-04T13:07:16.305Z,7.86
2017-01-04T13:08:16.325Z,7.86
2017-01-04T13:09:16.349Z,7.81
2017-01-04T13:10:16.347Z,7.66
2017-01-04T13:11:16.411Z,7.7
2017-01-04T13:12:17.705Z,7.84
2017-01-04T13:13:16.324Z,7.69
2017-01-04T13:14:16.304Z,7.54
2017-01-04T13:15:16.254Z,7.79
2017-01-04T13:16:16.581Z,7.88
2017-01-04T13:17:16.328Z,7.85
2017-01-04T13:18:16.325Z,7.84
2017-01-04T13:19:16.428Z,7.96
2017-01-04T13:20:16.366Z,8.06
2017-01-04T13:21:16.304Z,7.88
2017-01-04T13:22:16.356Z,7.79
2017-01-04T13:23:16.279Z,7.88
2017-01-04T13:24:16.337Z,7.84
2017-01-04T13:25:16.389Z,7.84
2017-01-04T13:26:16.428Z,7.84
2017-01-04T13:27:16.315Z,7.91
2017-01-04T13:28:16.415Z,8.02
2017-01-04T13:29:20.110Z,7.96
2017-01-04T13:30:16.404Z,8.06
2017-01-04T13:31:16.341Z,7.96
2017-01-04T13:32:16.388Z,8.06
2017-01-04T13:33:16.475Z,8.03
2017-01-04T13:34:16.447Z,8.04
2017-01-04T13:35:16.346Z,8.14
2017-01-04T13:36:16.710Z,7.92
2017-01-04T13:37:16.366Z,7.96
2017-01-04T13:38:16.466Z,8.06
2017-01-04T13:39:16.493Z,8.03